California, MO (65018)

3:50 PM CDT on May 29, 2015 (GMT -0500)
KMOCALIF1 | | Change Station
CLOSE
Current Station
Personal Weather Station
Location: California, MO
Elevation: 864 ft
Nearby Weather Stations
Active Advisory: Flood Warning

Elev 864 ft 38.63 °N, 92.57 °W | Updated 51 seconds ago

Mostly Cloudy
Mostly Cloudy
74.7 °F
Feels Like 75 °F
N
0.0
Wind Variable Wind from WSW
Gusts 0.0 mph

Today
High -- | Low -- °F
--% Chance of Precip.
Yesterday
High -- | Low -- °F
Precip. -- in
5:48 AM 8:26 PM
Waxing Gibbous, 86% visible
Pressure 29.96 in
Visibility 10.0 miles
Clouds Clear
Heat Index 75 °F
Dew Point 69 °F
Humidity 82%
Rainfall 0.18 in
Snow Depth Not available.
UV 2.5 out of 12
Pollen 7.10 out of 12
Air Quality Not available.
Flu Activity Sporadic
METAR KJEF 291953Z VRB03KT 10SM CLR 24/17 A3000 RMK AO2 RAE00 SLP145 P0000 T02390172

More Conditions Fewer Conditions

Pressure 29.96 in
Visibility 10.0 miles
Clouds Clear
Heat Index 75 °F
Dew Point 69 °F
Humidity 82%
Rainfall 0.18 in
Snow Depth Not available.
UV 2.5 out of 12
Pollen 7.10 out of 12
Air Quality Not available.
Flu Activity Sporadic
METAR KJEF 291953Z VRB03KT 10SM CLR 24/17 A3000 RMK AO2 RAE00 SLP145 P0000 T02390172

More Conditions Fewer Conditions

10-Day Weather Forecast

Almanac

Astronomy

May. 29, 2015 Rise Set
Actual Time
Civil Twilight
Nautical Twilight
Astronomical Twilight
Moon
Length of Visible Light
Length of Day
Tomorrow will be .
, % of the Moon is Illuminated

Today's Extremes

State Highs State Lows

Community

WunderPhotos

Upload Photos

1,825,351 photos uploaded!

WunderBlogs® & News

Nearby

Air Quality

  Air Quality AQ Index Pollutant
Not available.

Snow Depth

Station Depth Elevation

Earthquake Activity

City Distance Mag. Time & Date
Minimum magnitude displayed is 2.5.

Coastal Water Temperatures

Place Temperature

Stations

Nearby Weather Stations

Station Location Temp. Windchill Dew Point Humidity Wind Precip. Elev Updated Type
                   
Flood Warning
Statement as of 3:13 PM CDT on May 29, 2015

The National Weather Service in St. Louis has issued a

* Flood Warning for
the Missouri River at Jefferson City
* until Saturday.
* At 2:45 PM Friday the stage was 23.0 feet.
* Flood stage is 23.0 feet.
* Minor flooding is forecast.
* Forecast... the river is currently cresting near flood stage and is forecast to fall just
below flood stage tonight.
* Impact: at 23.0 feet... flood stage. Minor flooding begins.

                   Fld latest 7 a.M. Forecast
location stg obs stg 05/30 05/31 06/01 06/02 06/03

Missouri River
Jefferson City 23.0 22.99 22.9 22.2 20.9 19.6 18.1


Lat... Lon 3899 9255 3890 9260 3853 9222 3855 9192 3864 9198